Time;durP1;ratioP1;P1;durP2;ratioP2;P2;SDS_P1;SDS_P2;PMS_P1;PMS_P2;Temp;Humidity;BMP_temperature;BMP_pressure;BME280_temperature;BME280_humidity;BME280_pressure;Samples;Min_cycle;Max_cycle;Signal;HPM_P1;HPM_P2
2022/04/15 00:02:21;;;;;;;9.57;7.33;;;4.80;81.40;;;;;;5039714;28;20036;-68
2022/04/15 00:04:46;;;;;;;12.23;7.30;;;4.80;81.30;;;;;;5046526;28;20542;-68
2022/04/15 00:07:12;;;;;;;11.40;7.30;;;4.80;81.30;;;;;;5050779;28;20492;-68
2022/04/15 00:09:38;;;;;;;10.38;7.07;;;4.80;81.60;;;;;;5059616;28;20056;-68
2022/04/15 00:12:07;;;;;;;16.17;8.03;;;4.80;81.30;;;;;;5066523;28;20124;-68
2022/04/15 00:14:34;;;;;;;11.85;7.38;;;4.80;81.60;;;;;;5063541;28;20054;-68
2022/04/15 00:17:01;;;;;;;12.32;7.82;;;4.80;81.50;;;;;;5050402;28;20097;-68
2022/04/15 00:19:26;;;;;;;12.63;7.38;;;4.80;81.40;;;;;;5066685;28;20043;-69
2022/04/15 00:21:52;;;;;;;14.67;7.03;;;4.70;81.40;;;;;;5063159;28;20040;-68
2022/04/15 00:24:18;;;;;;;11.00;7.93;;;4.70;81.70;;;;;;5058797;28;20036;-68
2022/04/15 00:26:44;;;;;;;13.37;7.10;;;4.70;81.60;;;;;;5034385;28;20029;-68
2022/04/15 00:29:09;;;;;;;11.43;7.17;;;4.70;81.60;;;;;;5050805;28;20043;-68
2022/04/15 00:31:35;;;;;;;15.67;7.70;;;4.70;81.80;;;;;;5027731;28;20323;-68
2022/04/15 00:34:04;;;;;;;10.43;8.03;;;4.70;81.60;;;;;;5037417;28;20034;-68
2022/04/15 00:36:30;;;;;;;12.43;7.65;;;4.60;81.80;;;;;;5045917;28;20126;-68
2022/04/15 00:38:56;;;;;;;10.10;7.67;;;4.60;81.80;;;;;;5049072;28;20162;-68
2022/04/15 00:41:22;;;;;;;11.27;8.10;;;4.60;81.80;;;;;;5056916;28;20290;-68
2022/04/15 00:43:48;;;;;;;12.60;8.20;;;4.50;81.80;;;;;;5064503;28;20286;-68
2022/04/15 00:46:13;;;;;;;16.30;8.70;;;4.50;81.90;;;;;;5036144;28;20040;-68
2022/04/15 00:48:39;;;;;;;11.40;7.37;;;4.50;82.10;;;;;;5054646;28;20600;-68
2022/04/15 00:51:06;;;;;;;13.63;7.67;;;4.50;81.90;;;;;;5058904;28;20564;-68
2022/04/15 00:53:33;;;;;;;14.27;7.80;;;4.50;82.00;;;;;;5033240;28;20040;-68
2022/04/15 00:56:01;;;;;;;12.07;7.53;;;4.50;82.00;;;;;;5056901;28;21032;-68
2022/04/15 00:58:28;;;;;;;9.45;6.90;;;4.40;82.10;;;;;;5060739;28;20044;-68
2022/04/15 01:00:57;;;;;;;12.63;6.47;;;4.40;82.20;;;;;;5053038;28;20052;-68
2022/04/15 01:03:23;;;;;;;12.43;7.50;;;4.30;82.10;;;;;;5059461;28;20040;-68
2022/04/15 01:05:54;;;;;;;10.73;7.35;;;4.30;82.10;;;;;;5047628;28;20039;-68
2022/04/15 01:08:23;;;;;;;10.27;6.30;;;4.20;82.00;;;;;;5064679;28;20040;-68
2022/04/15 01:10:52;;;;;;;10.30;6.75;;;4.10;82.00;;;;;;5038631;28;20523;-68
2022/04/15 01:13:19;;;;;;;8.13;6.18;;;4.00;81.80;;;;;;5059422;28;20066;-68
2022/04/15 01:15:45;;;;;;;9.88;6.20;;;4.00;82.00;;;;;;5044334;28;20505;-68
2022/04/15 01:18:11;;;;;;;11.52;7.15;;;4.00;82.00;;;;;;5045549;28;20041;-68
2022/04/15 01:20:39;;;;;;;10.70;7.53;;;4.00;82.30;;;;;;5054911;28;20046;-68
2022/04/15 01:23:09;;;;;;;11.90;7.50;;;4.10;82.70;;;;;;5060308;28;20555;-68
2022/04/15 01:25:35;;;;;;;11.43;7.45;;;4.10;82.90;;;;;;5049749;28;20044;-68
2022/04/15 01:28:01;;;;;;;11.77;7.15;;;4.20;82.90;;;;;;5057455;28;20081;-68
2022/04/15 01:30:27;;;;;;;10.77;7.43;;;4.30;83.20;;;;;;5056909;28;20033;-68
2022/04/15 01:32:53;;;;;;;8.53;6.67;;;4.30;82.90;;;;;;5053029;28;20297;-68
2022/04/15 01:35:20;;;;;;;9.38;6.90;;;4.40;83.00;;;;;;5066079;28;21231;-68
2022/04/15 01:37:47;;;;;;;10.70;6.22;;;4.50;83.10;;;;;;5065008;28;20040;-68
2022/04/15 01:40:15;;;;;;;10.35;6.13;;;4.50;83.10;;;;;;5034200;28;20033;-68
2022/04/15 01:42:42;;;;;;;8.05;6.10;;;4.60;83.10;;;;;;5057616;28;20085;-68
2022/04/15 01:45:09;;;;;;;9.95;6.45;;;4.70;83.00;;;;;;5052615;28;20031;-68
2022/04/15 01:47:35;;;;;;;9.38;6.28;;;4.80;83.00;;;;;;5038036;28;20481;-68
2022/04/15 01:50:02;;;;;;;8.20;6.23;;;4.80;82.90;;;;;;5057019;28;20134;-68
2022/04/15 01:52:28;;;;;;;10.10;6.43;;;4.90;83.00;;;;;;5054826;28;20040;-68
2022/04/15 01:54:54;;;;;;;10.70;6.70;;;4.90;83.00;;;;;;5047410;28;20044;-68
2022/04/15 01:57:19;;;;;;;9.37;6.67;;;5.00;82.90;;;;;;5054537;28;20139;-68
2022/04/15 01:59:45;;;;;;;10.60;6.93;;;5.10;82.80;;;;;;5057633;28;20802;-68
2022/04/15 02:02:11;;;;;;;7.90;5.47;;;5.10;82.70;;;;;;5065083;28;20040;-68
2022/04/15 02:04:37;;;;;;;8.10;5.83;;;5.20;82.80;;;;;;5049697;28;20074;-68
2022/04/15 02:07:03;;;;;;;7.87;5.70;;;5.20;82.70;;;;;;5062179;28;20059;-68
2022/04/15 02:09:29;;;;;;;8.43;6.00;;;5.30;82.70;;;;;;5041630;28;20061;-68
2022/04/15 02:11:55;;;;;;;7.67;5.67;;;5.40;82.50;;;;;;5043210;28;20044;-68
2022/04/15 02:14:21;;;;;;;8.40;6.00;;;5.40;82.30;;;;;;5033505;28;20040;-68
2022/04/15 02:16:48;;;;;;;6.60;5.85;;;5.50;82.30;;;;;;5052255;28;20036;-68
2022/04/15 02:19:14;;;;;;;8.52;5.70;;;5.50;82.20;;;;;;5058692;28;20159;-68
2022/04/15 02:21:40;;;;;;;7.95;5.80;;;5.60;82.00;;;;;;5065087;28;20045;-68
2022/04/15 02:24:06;;;;;;;8.43;5.97;;;5.60;81.90;;;;;;5039931;28;20036;-68
2022/04/15 02:26:32;;;;;;;7.55;5.60;;;5.70;81.90;;;;;;5049299;28;20031;-69
2022/04/15 02:28:58;;;;;;;7.85;5.82;;;5.80;81.80;;;;;;5045020;28;20030;-68
2022/04/15 02:31:24;;;;;;;7.30;5.77;;;5.80;81.80;;;;;;5054950;28;20106;-68
2022/04/15 02:33:50;;;;;;;8.50;6.17;;;5.90;81.70;;;;;;5057677;28;20076;-68
2022/04/15 02:36:16;;;;;;;8.50;6.50;;;6.00;81.60;;;;;;5041837;28;20044;-68
2022/04/15 02:38:42;;;;;;;6.50;5.85;;;6.00;81.40;;;;;;5030048;28;20147;-68
2022/04/15 02:41:08;;;;;;;8.98;5.93;;;6.10;81.30;;;;;;5031382;28;20047;-68
2022/04/15 02:43:37;;;;;;;7.95;6.32;;;6.10;81.40;;;;;;5067081;28;20035;-68
2022/04/15 02:46:05;;;;;;;9.57;6.07;;;6.20;81.20;;;;;;5057962;28;20029;-68
2022/04/15 02:48:30;;;;;;;10.05;6.13;;;6.20;81.30;;;;;;5045515;28;20510;-68
2022/04/15 02:50:57;;;;;;;9.53;5.60;;;6.30;81.30;;;;;;5044076;28;20045;-68
2022/04/15 02:53:23;;;;;;;7.82;5.88;;;6.40;81.50;;;;;;5030197;28;20566;-68
2022/04/15 02:55:50;;;;;;;10.63;5.40;;;6.40;81.20;;;;;;5057594;28;20071;-68
2022/04/15 02:58:16;;;;;;;8.63;5.90;;;6.50;81.10;;;;;;5059367;28;20094;-68
2022/04/15 03:00:41;;;;;;;6.07;4.93;;;6.50;80.90;;;;;;5054945;28;20045;-68
2022/04/15 03:03:07;;;;;;;7.80;4.40;;;6.60;81.00;;;;;;5038307;28;20036;-69
2022/04/15 03:05:33;;;;;;;5.50;4.90;;;6.70;80.80;;;;;;5040745;28;20037;-69
2022/04/15 03:07:59;;;;;;;7.47;4.90;;;6.80;80.80;;;;;;5046994;28;20347;-68
2022/04/15 03:10:25;;;;;;;8.70;5.13;;;6.80;80.70;;;;;;5052389;28;20124;-68
2022/04/15 03:12:51;;;;;;;7.27;5.17;;;6.90;80.70;;;;;;5031952;28;20119;-68
2022/04/15 03:15:17;;;;;;;7.53;4.93;;;6.90;80.70;;;;;;5068723;28;20316;-68
2022/04/15 03:17:43;;;;;;;10.38;5.13;;;6.90;80.60;;;;;;5066651;28;20055;-69
2022/04/15 03:20:09;;;;;;;7.85;4.25;;;7.00;80.70;;;;;;5053410;28;20315;-68
2022/04/15 03:22:45;;;;;;;7.13;5.20;;;7.00;80.70;;;;;;5054692;28;20063;-69
2022/04/15 03:25:13;;;;;;;7.78;4.75;;;7.00;80.70;;;;;;5039451;28;20060;-69
2022/04/15 03:27:39;;;;;;;9.45;5.15;;;7.10;80.70;;;;;;5068716;28;20044;-69
2022/04/15 03:30:05;;;;;;;6.63;5.10;;;7.10;80.80;;;;;;5036890;28;20110;-69
2022/04/15 03:32:31;;;;;;;6.75;4.70;;;7.10;80.80;;;;;;5063765;28;20507;-69
2022/04/15 03:34:58;;;;;;;8.38;4.75;;;7.10;80.70;;;;;;5065463;28;20044;-69
2022/04/15 03:37:24;;;;;;;6.45;4.30;;;7.20;80.90;;;;;;5034674;28;20076;-68
2022/04/15 03:39:50;;;;;;;7.78;4.32;;;7.20;80.90;;;;;;5032090;28;20048;-69
2022/04/15 03:42:16;;;;;;;6.53;3.83;;;7.20;80.80;;;;;;5040780;28;20086;-68
2022/04/15 03:44:41;;;;;;;8.77;4.37;;;7.20;80.70;;;;;;5046125;28;20365;-68
2022/04/15 03:47:07;;;;;;;9.20;4.67;;;7.30;80.60;;;;;;5061140;28;20101;-68
2022/04/15 03:49:33;;;;;;;7.97;4.40;;;7.30;80.60;;;;;;5061569;28;20036;-68
2022/04/15 03:52:00;;;;;;;7.95;4.53;;;7.40;80.30;;;;;;5059467;28;20044;-68
2022/04/15 03:54:26;;;;;;;10.18;3.90;;;7.40;80.10;;;;;;5040472;28;20131;-68
2022/04/15 03:56:52;;;;;;;6.63;4.03;;;7.40;79.80;;;;;;5058944;28;20055;-69
2022/04/15 03:59:17;;;;;;;6.07;3.40;;;7.50;79.50;;;;;;5056398;28;20050;-69
2022/04/15 04:01:43;;;;;;;8.57;3.03;;;7.50;79.30;;;;;;5038174;28;20123;-68
2022/04/15 04:04:09;;;;;;;4.13;2.73;;;7.50;79.00;;;;;;5037514;28;20516;-68
2022/04/15 04:06:35;;;;;;;5.28;2.33;;;7.50;78.70;;;;;;5069519;28;20040;-68
2022/04/15 04:09:01;;;;;;;6.47;2.90;;;7.50;78.60;;;;;;5045128;28;20429;-68
2022/04/15 04:11:27;;;;;;;5.00;2.87;;;7.50;78.20;;;;;;5046223;28;20452;-68
2022/04/15 04:13:52;;;;;;;5.40;3.90;;;7.50;78.00;;;;;;5058230;28;20086;-68
2022/04/15 04:16:18;;;;;;;5.83;3.50;;;7.50;78.10;;;;;;5048204;28;20044;-68
2022/04/15 04:18:44;;;;;;;6.63;3.60;;;7.50;78.00;;;;;;5060050;28;20098;-68
2022/04/15 04:21:11;;;;;;;6.70;3.60;;;7.50;78.00;;;;;;5048500;28;20044;-68
2022/04/15 04:23:37;;;;;;;5.97;3.63;;;7.50;78.20;;;;;;5056796;28;20044;-69
2022/04/15 04:26:04;;;;;;;7.05;3.50;;;7.50;78.20;;;;;;5036273;28;20060;-69
2022/04/15 04:28:31;;;;;;;8.27;3.67;;;7.50;78.30;;;;;;5054397;28;20058;-69
2022/04/15 04:30:57;;;;;;;4.32;3.25;;;7.50;78.30;;;;;;5057497;28;20059;-69
2022/04/15 04:33:22;;;;;;;5.43;3.40;;;7.50;78.20;;;;;;5042122;28;20352;-69
2022/04/15 04:35:49;;;;;;;5.13;3.13;;;7.50;78.30;;;;;;5030188;28;20496;-69
2022/04/15 04:38:15;;;;;;;5.75;3.22;;;7.50;78.10;;;;;;5034514;28;20040;-68
2022/04/15 04:40:41;;;;;;;6.80;3.53;;;7.50;78.20;;;;;;5048938;28;20097;-68
2022/04/15 04:43:08;;;;;;;5.87;3.43;;;7.50;78.10;;;;;;5046185;28;20122;-68
2022/04/15 04:45:34;;;;;;;6.38;3.67;;;7.50;78.10;;;;;;5052400;28;20488;-69
2022/04/15 04:48:05;;;;;;;6.72;3.90;;;7.60;78.20;;;;;;5040045;28;20028;-69
2022/04/15 04:50:32;;;;;;;7.43;4.50;;;7.60;78.20;;;;;;5060112;28;20042;-69
2022/04/15 04:52:58;;;;;;;8.15;3.88;;;7.60;78.10;;;;;;5056525;28;20063;-69
2022/04/15 04:55:24;;;;;;;6.38;4.22;;;7.60;78.20;;;;;;5051211;28;20036;-69
2022/04/15 04:57:50;;;;;;;7.53;3.90;;;7.60;78.20;;;;;;5060317;28;20048;-69
2022/04/15 05:00:17;;;;;;;8.20;4.83;;;7.60;78.30;;;;;;5039743;28;20496;-69
2022/04/15 05:02:43;;;;;;;7.80;4.82;;;7.60;78.10;;;;;;5060159;28;20045;-69
2022/04/15 05:05:10;;;;;;;7.85;4.45;;;7.60;78.20;;;;;;5028873;28;20039;-69
2022/04/15 05:07:36;;;;;;;7.15;4.45;;;7.60;78.10;;;;;;5045403;28;20352;-68
2022/04/15 05:10:03;;;;;;;10.15;6.78;;;7.60;78.00;;;;;;5052368;28;20101;-69
2022/04/15 05:12:29;;;;;;;11.68;7.30;;;7.60;77.90;;;;;;5051625;28;20074;-69
2022/04/15 05:14:55;;;;;;;12.97;8.47;;;7.60;77.90;;;;;;5064642;28;20045;-69
2022/04/15 05:17:20;;;;;;;9.83;8.00;;;7.70;77.90;;;;;;5047056;28;20106;-69
2022/04/15 05:19:46;;;;;;;12.73;8.70;;;7.70;78.00;;;;;;5049135;28;20040;-69
2022/04/15 05:22:12;;;;;;;12.13;9.17;;;7.70;77.70;;;;;;5045033;28;20123;-69
2022/04/15 05:24:38;;;;;;;11.65;8.15;;;7.70;77.90;;;;;;5038119;28;20479;-69
2022/04/15 05:27:05;;;;;;;12.30;8.20;;;7.70;78.10;;;;;;5050008;28;20131;-69
2022/04/15 05:29:31;;;;;;;12.93;9.00;;;7.70;77.90;;;;;;5042525;28;20041;-69
2022/04/15 05:31:56;;;;;;;10.73;7.95;;;7.60;78.00;;;;;;5043473;28;20411;-68
2022/04/15 05:34:22;;;;;;;12.60;8.17;;;7.60;78.10;;;;;;5040154;28;20051;-68
2022/04/15 05:36:48;;;;;;;11.80;7.67;;;7.60;77.90;;;;;;5040083;28;20412;-69
2022/04/15 05:39:14;;;;;;;13.60;7.83;;;7.70;78.10;;;;;;5052352;28;20048;-69
2022/04/15 05:41:39;;;;;;;12.97;7.00;;;7.70;78.00;;;;;;5048083;28;20122;-69
2022/04/15 05:44:07;;;;;;;9.63;7.03;;;7.70;77.90;;;;;;5069275;28;20044;-69
2022/04/15 05:46:34;;;;;;;10.95;6.65;;;7.70;77.80;;;;;;5062367;28;20040;-69
2022/04/15 05:49:00;;;;;;;11.93;6.45;;;7.70;77.90;;;;;;5063316;28;20040;-69
2022/04/15 05:51:25;;;;;;;10.07;6.43;;;7.70;78.00;;;;;;5040654;28;20083;-69
2022/04/15 05:53:51;;;;;;;8.10;5.70;;;7.70;78.00;;;;;;5045482;28;20048;-69
2022/04/15 05:56:17;;;;;;;8.37;6.17;;;7.70;78.10;;;;;;5046972;28;20064;-69
2022/04/15 05:58:43;;;;;;;8.35;5.68;;;7.70;78.00;;;;;;5039726;28;20044;-69
2022/04/15 06:01:09;;;;;;;7.97;5.20;;;7.70;77.90;;;;;;5058675;28;20097;-69
2022/04/15 06:03:38;;;;;;;8.27;5.05;;;7.80;78.10;;;;;;5040612;28;20040;-68
2022/04/15 06:06:04;;;;;;;6.80;4.85;;;7.80;77.90;;;;;;5045052;28;20082;-68
2022/04/15 06:08:30;;;;;;;5.57;3.85;;;7.90;77.50;;;;;;5056323;28;20318;-69
2022/04/15 06:10:56;;;;;;;7.15;4.10;;;7.90;77.00;;;;;;5041029;28;20052;-69
2022/04/15 06:13:25;;;;;;;6.83;3.90;;;7.90;76.50;;;;;;5054392;28;20499;-68
2022/04/15 06:15:56;;;;;;;5.07;4.22;;;7.90;76.50;;;;;;5061404;28;20044;-68
2022/04/15 06:18:34;;;;;;;5.82;3.78;;;8.00;76.30;;;;;;5044034;28;20044;-68
2022/04/15 06:21:00;;;;;;;4.72;3.55;;;8.00;76.00;;;;;;5057887;28;20122;-69
2022/04/15 06:23:27;;;;;;;5.07;3.90;;;8.10;75.90;;;;;;5059975;28;20614;-69
2022/04/15 06:25:52;;;;;;;4.53;3.75;;;8.10;75.30;;;;;;5058324;28;20036;-69
2022/04/15 06:28:21;;;;;;;4.43;3.93;;;8.10;74.80;;;;;;5032053;28;20051;-69
2022/04/15 06:30:50;;;;;;;4.70;4.07;;;8.20;74.80;;;;;;5067446;28;20138;-69
2022/04/15 06:33:20;;;;;;;3.72;3.17;;;8.20;74.80;;;;;;5058902;28;20492;-68
2022/04/15 06:35:46;;;;;;;4.40;3.00;;;8.20;74.70;;;;;;5047187;28;20048;-69
2022/04/15 06:38:12;;;;;;;3.00;2.65;;;8.20;74.30;;;;;;5060645;28;20047;-69
2022/04/15 06:40:40;;;;;;;8.87;2.70;;;8.30;74.40;;;;;;5065849;28;20404;-69
2022/04/15 06:43:06;;;;;;;4.03;2.33;;;8.40;74.30;;;;;;5035372;28;20465;-69
2022/04/15 06:45:32;;;;;;;2.58;2.10;;;8.40;73.90;;;;;;5034687;28;20044;-69
2022/04/15 06:47:58;;;;;;;4.05;2.13;;;8.50;73.70;;;;;;5066325;28;20567;-69
2022/04/15 06:50:24;;;;;;;2.10;1.80;;;8.60;73.50;;;;;;5040093;28;20043;-69
2022/04/15 06:52:50;;;;;;;3.80;1.93;;;8.70;73.20;;;;;;5047936;28;20040;-69
2022/04/15 06:55:16;;;;;;;5.05;2.38;;;8.70;72.60;;;;;;5060697;28;20523;-69
2022/04/15 06:57:42;;;;;;;4.07;2.00;;;8.70;72.50;;;;;;5066050;28;20036;-69
2022/04/15 07:00:08;;;;;;;3.13;1.93;;;8.70;72.50;;;;;;5067831;28;20372;-69
2022/04/15 07:02:35;;;;;;;3.22;2.63;;;8.60;72.50;;;;;;5060367;28;20036;-69
2022/04/15 07:05:02;;;;;;;5.05;2.90;;;8.60;72.40;;;;;;5046151;28;20379;-69
2022/04/15 07:07:28;;;;;;;4.95;3.80;;;8.50;72.60;;;;;;5043637;28;20040;-69
2022/04/15 07:09:55;;;;;;;5.50;4.10;;;8.40;72.70;;;;;;5044085;28;20101;-69
2022/04/15 07:12:21;;;;;;;5.00;3.70;;;8.30;73.10;;;;;;5020944;28;20504;-69
2022/04/15 07:14:46;;;;;;;4.73;3.60;;;8.30;73.60;;;;;;5066985;28;20036;-69
2022/04/15 07:17:12;;;;;;;5.97;4.10;;;8.30;73.80;;;;;;5028055;28;20405;-69
2022/04/15 07:19:38;;;;;;;7.70;3.97;;;8.20;73.70;;;;;;5026496;28;20048;-69
2022/04/15 07:22:05;;;;;;;5.75;4.47;;;8.20;73.90;;;;;;5059604;28;20055;-69
2022/04/15 07:24:35;;;;;;;7.22;5.10;;;8.20;73.90;;;;;;5062918;28;20040;-69
2022/04/15 07:27:02;;;;;;;7.47;5.47;;;8.10;73.60;;;;;;5055145;28;20036;-69
2022/04/15 07:29:30;;;;;;;8.23;5.90;;;8.10;73.50;;;;;;5038356;28;20458;-69
2022/04/15 07:31:57;;;;;;;7.82;5.93;;;8.10;73.80;;;;;;5061325;28;20544;-69
2022/04/15 07:34:23;;;;;;;9.13;6.28;;;8.10;73.90;;;;;;5053050;28;20047;-69
2022/04/15 07:36:53;;;;;;;10.43;7.37;;;8.10;74.00;;;;;;5036783;28;20717;-69
2022/04/15 07:39:20;;;;;;;12.18;7.82;;;8.20;74.10;;;;;;5044739;28;20370;-69
2022/04/15 07:41:45;;;;;;;11.88;8.50;;;8.20;73.90;;;;;;5067145;28;20028;-69
2022/04/15 07:44:12;;;;;;;11.87;8.33;;;8.30;73.90;;;;;;5065328;28;20032;-69
2022/04/15 07:46:39;;;;;;;13.63;8.63;;;8.30;73.70;;;;;;5051581;28;20521;-69
2022/04/15 07:49:06;;;;;;;16.77;9.57;;;8.40;73.40;;;;;;5043489;28;20043;-69
2022/04/15 07:51:32;;;;;;;14.65;9.13;;;8.40;73.50;;;;;;5018008;28;20475;-69
2022/04/15 07:53:58;;;;;;;14.85;9.25;;;8.50;73.30;;;;;;5059218;28;20818;-69
2022/04/15 07:56:24;;;;;;;13.65;8.98;;;8.50;73.40;;;;;;5045171;28;20052;-69
2022/04/15 07:58:50;;;;;;;15.03;9.33;;;8.50;73.40;;;;;;5052533;28;20052;-69
2022/04/15 08:01:20;;;;;;;15.98;9.70;;;8.60;73.10;;;;;;5031759;28;20059;-69
2022/04/15 08:03:46;;;;;;;14.27;9.30;;;8.60;73.30;;;;;;5040729;28;20136;-69
2022/04/15 08:06:13;;;;;;;13.55;10.43;;;8.70;73.00;;;;;;5053667;28;20044;-69
2022/04/15 08:08:39;;;;;;;14.02;10.07;;;8.80;72.90;;;;;;5050398;28;20546;-69
2022/04/15 08:11:05;;;;;;;12.63;9.03;;;9.00;73.00;;;;;;5052046;28;20056;-69
2022/04/15 08:13:32;;;;;;;15.57;10.03;;;9.20;73.00;;;;;;5058349;28;20845;-69
2022/04/15 08:15:58;;;;;;;13.93;9.10;;;9.60;72.80;;;;;;5038417;28;20121;-69
2022/04/15 08:18:24;;;;;;;15.05;10.15;;;9.90;72.40;;;;;;5029695;28;20055;-69
2022/04/15 08:20:52;;;;;;;14.40;9.63;;;10.20;71.30;;;;;;5068023;28;20043;-69
2022/04/15 08:23:20;;;;;;;15.85;10.05;;;10.50;69.90;;;;;;5026599;28;20055;-69
2022/04/15 08:25:46;;;;;;;15.68;10.70;;;10.60;69.50;;;;;;5040432;28;20397;-69
2022/04/15 08:28:13;;;;;;;14.10;9.35;;;10.60;68.90;;;;;;5048545;28;20041;-69
2022/04/15 08:30:38;;;;;;;15.27;9.55;;;10.70;69.20;;;;;;5056577;28;20040;-69
2022/04/15 08:33:07;;;;;;;13.63;9.73;;;10.70;68.70;;;;;;5033684;28;20382;-69
2022/04/15 08:35:37;;;;;;;13.38;9.88;;;10.80;68.50;;;;;;5045584;28;20403;-69
2022/04/15 08:38:03;;;;;;;17.65;9.35;;;10.70;68.50;;;;;;5060432;28;20122;-69
2022/04/15 08:40:34;;;;;;;17.43;9.20;;;10.80;68.90;;;;;;5061783;28;20151;-70
2022/04/15 08:43:00;;;;;;;15.23;8.60;;;10.90;68.70;;;;;;5026806;28;20329;-69
2022/04/15 08:45:27;;;;;;;12.70;8.10;;;11.00;68.00;;;;;;5054225;28;20054;-69
2022/04/15 08:48:00;;;;;;;11.20;7.40;;;11.00;67.80;;;;;;5043246;28;20036;-69
2022/04/15 08:50:30;;;;;;;11.82;7.85;;;11.00;66.90;;;;;;5062594;28;20089;-69
2022/04/15 08:52:57;;;;;;;11.30;7.63;;;11.00;67.00;;;;;;5061820;28;20044;-69
2022/04/15 08:55:24;;;;;;;13.25;8.02;;;10.90;67.20;;;;;;5044781;28;20054;-69
2022/04/15 08:57:51;;;;;;;11.63;8.07;;;10.90;66.90;;;;;;5059839;28;20067;-68
2022/04/15 09:00:21;;;;;;;14.25;8.30;;;10.90;67.10;;;;;;5062508;28;20291;-68
2022/04/15 09:02:47;;;;;;;16.13;7.78;;;10.90;67.20;;;;;;5040650;28;20370;-68
2022/04/15 09:05:18;;;;;;;11.70;7.05;;;10.90;67.10;;;;;;5052240;28;20134;-68
2022/04/15 09:07:45;;;;;;;11.00;7.35;;;10.90;67.10;;;;;;5055372;28;20036;-68
2022/04/15 09:10:12;;;;;;;12.10;7.68;;;10.90;67.30;;;;;;5053215;28;20048;-69
2022/04/15 09:12:39;;;;;;;10.75;6.68;;;10.90;67.40;;;;;;5050501;28;20603;-69
2022/04/15 09:15:06;;;;;;;10.20;6.40;;;10.90;67.00;;;;;;5062672;28;20040;-69
2022/04/15 09:17:32;;;;;;;10.60;6.03;;;11.00;66.90;;;;;;5037087;28;20043;-69
2022/04/15 09:19:59;;;;;;;8.53;6.00;;;10.90;66.40;;;;;;5057896;28;20047;-69
2022/04/15 09:22:25;;;;;;;9.67;5.63;;;11.00;66.10;;;;;;5055709;28;20710;-69
2022/04/15 09:24:51;;;;;;;8.67;5.10;;;11.00;66.20;;;;;;5032579;28;20298;-69
2022/04/15 09:27:19;;;;;;;10.27;5.43;;;11.10;65.50;;;;;;5060477;28;20330;-69
2022/04/15 09:29:45;;;;;;;9.85;5.40;;;11.20;65.80;;;;;;5041522;28;20289;-69
2022/04/15 09:32:16;;;;;;;9.27;5.10;;;11.30;65.60;;;;;;5055377;28;20044;-69
2022/04/15 09:35:06;;;;;;;12.33;5.67;;;11.40;65.50;;;;;;5054288;28;20306;-69
2022/04/15 09:37:37;;;;;;;11.33;5.43;;;11.60;65.30;;;;;;5047225;28;20287;-69
2022/04/15 09:40:17;;;;;;;9.00;4.90;;;11.80;65.10;;;;;;5055693;28;20365;-69
2022/04/15 09:42:48;;;;;;;9.60;5.00;;;12.10;64.30;;;;;;5040704;28;20340;-69
2022/04/15 09:45:18;;;;;;;7.70;4.20;;;12.20;63.60;;;;;;5055520;28;20797;-69
2022/04/15 09:47:51;;;;;;;9.33;4.90;;;12.30;62.50;;;;;;5056198;28;20628;-69
2022/04/15 09:50:31;;;;;;;11.00;5.00;;;12.30;62.20;;;;;;5026666;28;20704;-69
2022/04/15 09:53:09;;;;;;;7.67;4.17;;;12.30;62.50;;;;;;5047107;28;20651;-69
2022/04/15 09:55:36;;;;;;;8.33;4.17;;;12.40;62.80;;;;;;5053017;28;20278;-69
2022/04/15 09:58:12;;;;;;;6.00;4.20;;;12.50;62.70;;;;;;5040102;28;21040;-69
2022/04/15 10:00:40;;;;;;;7.67;4.50;;;12.70;62.70;;;;;;5054643;28;20275;-69
2022/04/15 10:03:14;;;;;;;5.33;3.50;;;12.70;61.60;;;;;;5053750;28;20408;-69
2022/04/15 10:05:42;;;;;;;6.53;3.70;;;12.70;61.10;;;;;;5037424;28;20365;-69
2022/04/15 10:08:09;;;;;;;6.40;3.73;;;12.70;61.60;;;;;;5039272;28;20291;-69
2022/04/15 10:10:35;;;;;;;6.43;3.90;;;12.60;61.50;;;;;;5041343;28;20298;-69
2022/04/15 10:13:03;;;;;;;5.67;3.53;;;12.60;61.50;;;;;;5039689;28;20314;-69
2022/04/15 10:15:30;;;;;;;18.10;4.80;;;12.60;61.20;;;;;;5053666;28;20794;-69
2022/04/15 10:18:00;;;;;;;6.40;3.70;;;12.60;61.00;;;;;;5034942;28;20287;-69
2022/04/15 10:20:31;;;;;;;7.67;3.93;;;12.60;61.20;;;;;;5060098;28;20274;-69
2022/04/15 10:23:03;;;;;;;5.70;3.87;;;12.60;60.70;;;;;;5062484;28;20291;-69
2022/04/15 10:25:30;;;;;;;7.90;3.90;;;12.60;60.70;;;;;;5058875;28;20309;-69
2022/04/15 10:28:16;;;;;;;4.80;3.20;;;12.60;60.80;;;;;;5065371;28;20844;-69
2022/04/15 10:30:51;;;;;;;9.43;3.80;;;12.80;60.10;;;;;;5064771;28;20286;-69
2022/04/15 10:33:28;;;;;;;5.13;3.47;;;12.90;60.60;;;;;;5068150;28;20312;-69
2022/04/15 10:36:10;;;;;;;5.63;3.50;;;13.10;59.60;;;;;;5058591;28;20290;-69
2022/04/15 10:38:35;;;;;;;5.57;3.23;;;13.10;59.70;;;;;;5063045;28;20290;-69
2022/04/15 10:41:14;;;;;;;7.10;3.63;;;13.30;59.60;;;;;;5057960;28;21154;-69
2022/04/15 10:43:55;;;;;;;5.37;3.20;;;13.40;59.00;;;;;;5063894;28;20080;-69
2022/04/15 10:46:30;;;;;;;7.23;3.13;;;13.50;58.40;;;;;;5035332;28;20341;-69
2022/04/15 10:49:01;;;;;;;5.03;2.67;;;13.60;58.90;;;;;;5066606;28;20286;-69
2022/04/15 10:51:31;;;;;;;4.97;3.03;;;13.70;58.60;;;;;;5043815;28;20810;-69
2022/04/15 10:54:39;;;;;;;4.10;2.83;;;13.80;58.20;;;;;;5064512;28;20662;-69
2022/04/15 10:57:10;;;;;;;3.77;2.70;;;13.70;57.00;;;;;;5057706;28;20706;-69
2022/04/15 11:02:43;;;;;;;5.30;2.57;;;13.80;57.10;;;;;;5058382;28;20391;-70
2022/04/15 11:05:14;;;;;;;5.30;3.33;;;13.90;57.10;;;;;;5047400;28;20282;-70
2022/04/15 11:07:56;;;;;;;6.70;2.87;;;13.80;57.00;;;;;;5065349;28;20309;-69
2022/04/15 11:10:42;;;;;;;5.90;3.00;;;13.90;57.40;;;;;;5062186;28;20299;-70
2022/04/15 11:13:23;;;;;;;3.72;2.80;;;13.90;57.40;;;;;;5060111;28;20289;-69
2022/04/15 11:16:00;;;;;;;4.23;3.10;;;13.80;57.00;;;;;;5066362;28;20047;-69
2022/04/15 11:18:51;;;;;;;4.43;2.90;;;13.80;57.40;;;;;;5060171;28;20290;-69
2022/04/15 11:21:27;;;;;;;7.33;3.50;;;13.90;56.80;;;;;;5057566;28;20295;-69
2022/04/15 11:24:01;;;;;;;4.60;3.30;;;14.00;57.10;;;;;;5057150;28;20302;-70
2022/04/15 11:26:28;;;;;;;6.40;3.63;;;14.10;56.60;;;;;;5032334;28;20301;-70
2022/04/15 11:28:57;;;;;;;5.23;3.63;;;14.20;56.60;;;;;;5058238;28;20766;-69
2022/04/15 11:31:27;;;;;;;4.57;3.23;;;14.20;56.40;;;;;;5058246;28;20807;-69
2022/04/15 11:33:56;;;;;;;6.70;3.30;;;14.40;55.80;;;;;;5058296;28;20290;-69
2022/04/15 11:36:23;;;;;;;4.77;3.33;;;14.50;55.50;;;;;;5036915;28;20631;-69
2022/04/15 11:38:51;;;;;;;8.33;3.70;;;14.40;55.60;;;;;;5037572;28;20381;-69
2022/04/15 11:41:25;;;;;;;5.50;3.50;;;14.30;55.20;;;;;;5043616;28;20689;-69
2022/04/15 11:43:56;;;;;;;6.40;3.03;;;14.20;55.40;;;;;;5057559;28;20639;-69
2022/04/15 11:46:21;;;;;;;6.63;4.43;;;14.30;55.30;;;;;;5057996;28;20654;-69
2022/04/15 11:48:47;;;;;;;7.10;3.90;;;14.30;55.60;;;;;;5040969;28;20282;-70
2022/04/15 11:51:13;;;;;;;7.00;4.23;;;14.40;55.70;;;;;;5053991;28;20097;-70
2022/04/15 11:53:39;;;;;;;5.30;3.70;;;14.60;55.80;;;;;;5042158;28;20093;-69
2022/04/15 11:56:05;;;;;;;7.13;4.90;;;14.70;55.00;;;;;;5046007;28;20306;-70
2022/04/15 11:58:35;;;;;;;7.53;4.83;;;14.70;55.30;;;;;;5041647;28;20036;-69
2022/04/15 12:01:02;;;;;;;7.90;4.87;;;14.60;54.70;;;;;;5058304;28;20123;-70
2022/04/15 12:03:29;;;;;;;9.00;5.00;;;14.50;54.60;;;;;;5056439;28;20310;-70
2022/04/15 12:05:59;;;;;;;10.87;5.10;;;14.50;55.20;;;;;;5040037;28;20317;-70
2022/04/15 12:08:25;;;;;;;7.37;5.20;;;14.50;55.60;;;;;;5057334;28;20320;-70
2022/04/15 12:10:53;;;;;;;84.23;11.33;;;14.60;55.10;;;;;;5029425;28;20758;-70
2022/04/15 12:13:19;;;;;;;14.10;5.37;;;14.60;55.80;;;;;;5010496;28;20378;-70
2022/04/15 12:15:46;;;;;;;11.07;5.50;;;14.70;55.80;;;;;;5043937;28;20706;-69
2022/04/15 12:18:12;;;;;;;9.60;5.17;;;14.80;55.20;;;;;;5059137;28;20527;-70
2022/04/15 12:20:40;;;;;;;8.67;4.80;;;14.80;54.90;;;;;;5057558;28;20294;-70
2022/04/15 12:23:11;;;;;;;8.30;5.43;;;14.80;54.90;;;;;;5057478;28;20302;-70
2022/04/15 12:31:24;;;;;;;10.43;5.07;;;14.90;55.10;;;;;;5053231;28;20293;-70
2022/04/15 12:33:50;;;;;;;7.35;5.15;;;14.90;54.50;;;;;;5049551;28;20286;-70
2022/04/15 12:36:17;;;;;;;10.77;5.50;;;14.80;54.70;;;;;;5061318;28;20051;-70
2022/04/15 12:39:04;;;;;;;11.60;5.73;;;14.70;54.90;;;;;;5058007;28;20075;-70
2022/04/15 12:41:57;;;;;;;9.33;5.73;;;14.70;55.40;;;;;;5066203;28;20284;-70
2022/04/15 12:44:29;;;;;;;6.50;5.13;;;14.70;55.50;;;;;;5045959;28;20283;-70
2022/04/15 12:46:58;;;;;;;8.93;5.20;;;14.60;55.30;;;;;;5041236;28;20744;-70
2022/04/15 12:49:33;;;;;;;7.60;4.47;;;14.60;55.20;;;;;;5049781;28;20946;-70
2022/04/15 12:52:19;;;;;;;8.90;5.70;;;14.50;55.60;;;;;;5053239;28;20290;-70
2022/04/15 12:55:02;;;;;;;8.45;5.07;;;14.40;55.80;;;;;;5037653;28;20286;-70
2022/04/15 12:57:36;;;;;;;8.53;5.30;;;14.30;55.30;;;;;;5044006;28;20769;-70
2022/04/15 13:00:05;;;;;;;10.67;5.60;;;14.20;55.70;;;;;;5052336;28;20373;-70
2022/04/15 13:02:31;;;;;;;7.80;5.00;;;14.10;55.80;;;;;;5033645;28;20682;-70
2022/04/15 13:04:58;;;;;;;7.97;5.00;;;14.10;55.90;;;;;;5063791;28;20290;-70